Time;durP1;ratioP1;P1;durP2;ratioP2;P2;SDS_P1;SDS_P2;PMS_P1;PMS_P2;Temp;Humidity;BMP_temperature;BMP_pressure;BME280_temperature;BME280_humidity;BME280_pressure;Samples;Min_cycle;Max_cycle;Signal;HPM_P1;HPM_P2
2021/01/17 00:00:52;;;;;;;36.03;18.87;;;;;;;-13.28;65.52;99667.11;1664576;86;21141;-69
2021/01/17 00:03:21;;;;;;;34.20;18.07;;;;;;;-13.16;65.29;99670.66;1653037;86;21860;-67
2021/01/17 00:05:49;;;;;;;30.20;17.67;;;;;;;-13.12;64.86;99666.94;1653176;86;22057;-67
2021/01/17 00:08:18;;;;;;;32.27;16.70;;;;;;;-13.10;64.66;99668.48;1643262;87;21229;-65
2021/01/17 00:10:47;;;;;;;28.17;17.17;;;;;;;-13.12;64.35;99663.05;1665540;86;21515;-67
2021/01/17 00:13:15;;;;;;;29.93;17.93;;;;;;;-13.28;64.17;99665.36;1665499;86;21313;-67
2021/01/17 00:15:42;;;;;;;26.40;14.23;;;;;;;-13.48;64.09;99668.43;1663582;86;21320;-67
2021/01/17 00:18:11;;;;;;;25.80;15.40;;;;;;;-13.64;64.03;99662.58;1666163;86;21908;-67
2021/01/17 00:20:40;;;;;;;28.43;16.10;;;;;;;-13.77;64.22;99669.01;1665063;86;21299;-68
2021/01/17 00:23:07;;;;;;;30.67;17.33;;;;;;;-13.77;64.33;99672.87;1644230;86;21437;-68
2021/01/17 00:25:35;;;;;;;30.20;18.03;;;;;;;-13.78;64.29;99671.22;1663849;86;22035;-69
2021/01/17 00:28:02;;;;;;;36.63;18.37;;;;;;;-13.79;64.33;99670.84;1653064;86;21420;-69
2021/01/17 00:30:33;;;;;;;35.17;15.90;;;;;;;-13.80;64.16;99672.22;1639016;87;21451;-69
2021/01/17 00:33:02;;;;;;;35.40;19.43;;;;;;;-13.83;64.17;99680.19;1639310;86;21467;-68
2021/01/17 00:35:31;;;;;;;32.40;17.07;;;;;;;-13.92;64.05;99675.14;1640255;86;21931;-70
2021/01/17 00:38:01;;;;;;;30.70;17.20;;;;;;;-13.98;64.09;99675.52;1639243;87;21336;-76
2021/01/17 00:40:29;;;;;;;32.83;17.57;;;;;;;-14.04;64.10;99672.02;1652906;86;21926;-67
2021/01/17 00:42:56;;;;;;;28.30;15.63;;;;;;;-14.14;64.06;99674.80;1665840;86;21541;-73
2021/01/17 00:45:26;;;;;;;30.33;15.17;;;;;;;-14.27;64.22;99672.61;1664971;86;21296;-71
2021/01/17 00:47:54;;;;;;;36.60;20.33;;;;;;;-14.40;64.41;99679.03;1665818;86;21374;-73
2021/01/17 00:50:23;;;;;;;40.03;20.67;;;;;;;-14.50;64.69;99678.38;1666058;86;21380;-70
2021/01/17 00:52:54;;;;;;;31.23;18.57;;;;;;;-14.56;64.98;99681.33;1641005;86;21244;-73
2021/01/17 00:55:24;;;;;;;43.15;18.85;;;;;;;-14.54;65.27;99680.78;1692770;84;21202;-69
2021/01/17 00:57:52;;;;;;;38.40;20.13;;;;;;;-14.58;65.38;99679.32;1657517;84;21067;-69
2021/01/17 01:00:24;;;;;;;40.47;20.50;;;;;;;-14.58;65.71;99681.44;1694243;84;21155;-68
2021/01/17 01:03:19;;;;;;;34.43;16.63;;;;;;;-14.46;65.83;99684.56;1855332;76;22166;-70
2021/01/17 01:05:46;;;;;;;35.43;16.80;;;;;;;-14.53;65.87;99678.58;1855061;77;20999;-68
2021/01/17 01:08:17;;;;;;;33.65;18.48;;;;;;;-14.63;66.09;99679.59;1827261;78;21638;-76
2021/01/17 01:10:44;;;;;;;30.37;13.75;;;;;;;-14.66;66.48;99676.72;1843372;77;21040;-70
2021/01/17 01:13:11;;;;;;;38.20;17.55;;;;;;;-14.65;66.87;99679.68;1826502;78;21525;-70
2021/01/17 01:15:39;;;;;;;43.15;20.10;;;;;;;-14.64;67.17;99682.63;1827313;77;20953;-68
2021/01/17 01:18:07;;;;;;;48.80;22.77;;;;;;;-14.59;67.41;99689.27;1826449;78;20955;-69
2021/01/17 01:20:34;;;;;;;45.80;22.07;;;;;;;-14.57;67.45;99681.78;1826572;78;22370;-70
2021/01/17 01:23:03;;;;;;;38.15;18.23;;;;;;;-14.49;67.60;99680.88;1826743;78;21014;-69
2021/01/17 01:25:32;;;;;;;49.63;24.97;;;;;;;-14.36;67.54;99683.54;1826359;78;21058;-69
2021/01/17 01:27:59;;;;;;;45.38;23.98;;;;;;;-14.32;67.40;99682.39;1826276;78;21474;-69
2021/01/17 01:30:26;;;;;;;38.95;20.32;;;;;;;-14.27;67.39;99681.20;1826541;77;21156;-67
2021/01/17 01:32:55;;;;;;;40.08;21.57;;;;;;;-14.25;67.56;99674.20;1857993;77;23465;-72
2021/01/17 01:35:22;;;;;;;38.58;20.08;;;;;;;-14.26;67.55;99675.11;1859912;77;21201;-71
2021/01/17 01:37:52;;;;;;;48.70;24.10;;;;;;;-14.23;67.66;99665.04;1827785;77;21140;-74
2021/01/17 01:40:20;;;;;;;51.63;25.20;;;;;;;-14.27;67.52;99667.45;1819729;78;21197;-72
2021/01/17 01:42:47;;;;;;;52.77;24.37;;;;;;;-14.21;67.49;99670.95;1814575;79;21134;-74
2021/01/17 01:45:15;;;;;;;52.90;24.30;;;;;;;-14.26;67.28;99668.66;1778841;80;21466;-74
2021/01/17 01:47:42;;;;;;;42.33;21.27;;;;;;;-14.32;67.26;99673.35;1783826;80;21851;-67
2021/01/17 01:50:12;;;;;;;37.73;20.15;;;;;;;-14.38;67.50;99673.75;1790141;80;21161;-68
2021/01/17 01:52:39;;;;;;;35.15;18.90;;;;;;;-14.46;67.79;99678.56;1785018;80;21791;-69
2021/01/17 01:55:09;;;;;;;40.98;22.00;;;;;;;-14.51;68.15;99676.26;1784934;80;21131;-69
2021/01/17 01:57:36;;;;;;;47.50;21.30;;;;;;;-14.50;68.50;99670.19;1764624;80;21430;-69
2021/01/17 02:00:08;;;;;;;36.80;18.05;;;;;;;-14.39;68.68;99661.79;1762207;80;21121;-70
2021/01/17 02:02:46;;;;;;;36.00;19.07;;;;;;;-14.33;68.40;99658.32;1793431;79;21630;-69
2021/01/17 02:05:15;;;;;;;44.67;21.43;;;;;;;-14.37;68.23;99667.67;1809622;78;20991;-69
2021/01/17 02:08:00;;;;;;;45.08;21.73;;;;;;;-14.42;68.26;99669.25;1803262;78;21601;-69
2021/01/17 02:10:28;;;;;;;41.58;19.98;;;;;;;-14.38;68.29;99671.17;1795147;78;21229;-68
2021/01/17 02:13:03;;;;;;;44.70;21.57;;;;;;;-14.36;68.05;99673.21;1781780;79;21200;-69
2021/01/17 02:15:33;;;;;;;47.67;26.07;;;;;;;-14.39;67.90;99672.12;1800808;78;21570;-69
2021/01/17 02:18:02;;;;;;;54.35;22.17;;;;;;;-14.41;67.78;99679.95;1802244;78;21090;-69
2021/01/17 02:20:31;;;;;;;45.88;21.85;;;;;;;-14.46;67.61;99679.86;1795243;80;21105;-69
2021/01/17 02:23:06;;;;;;;43.85;20.72;;;;;;;-14.53;67.49;99679.88;1795218;80;21277;-69
2021/01/17 02:25:37;;;;;;;45.52;22.42;;;;;;;-14.64;67.44;99683.09;1792821;80;21012;-70
2021/01/17 02:28:16;;;;;;;45.43;21.75;;;;;;;-14.75;67.52;99689.34;1803409;78;20995;-68
2021/01/17 02:30:49;;;;;;;52.58;22.90;;;;;;;-14.85;67.62;99692.09;1753094;81;21184;-69
2021/01/17 02:33:25;;;;;;;44.25;22.77;;;;;;;-14.96;67.69;99682.40;1795358;78;21142;-69
2021/01/17 02:36:02;;;;;;;41.98;22.70;;;;;;;-15.00;67.93;99680.92;1766766;80;21459;-69
2021/01/17 02:38:57;;;;;;;41.68;21.77;;;;;;;-15.07;67.96;99679.19;1776774;80;21621;-68
2021/01/17 02:41:35;;;;;;;36.35;18.27;;;;;;;-15.15;68.03;99681.35;1783910;78;21041;-69
2021/01/17 02:44:30;;;;;;;38.02;17.92;;;;;;;-15.22;68.16;99673.62;1807906;78;21129;-73
2021/01/17 02:46:57;;;;;;;42.30;20.43;;;;;;;-15.24;68.27;99672.03;1718699;83;21629;-69
2021/01/17 02:49:24;;;;;;;48.10;21.97;;;;;;;-15.27;68.46;99673.05;1723080;82;21633;-68
2021/01/17 02:51:52;;;;;;;32.17;17.52;;;;;;;-15.31;68.43;99672.86;1736717;82;21112;-68
2021/01/17 02:54:35;;;;;;;38.45;20.85;;;;;;;-15.33;68.44;99672.11;1722224;82;21216;-68
2021/01/17 02:57:08;;;;;;;47.05;21.68;;;;;;;-15.39;68.43;99668.58;1708848;82;21598;-71
2021/01/17 02:59:55;;;;;;;34.25;17.12;;;;;;;-15.45;68.47;99664.25;1710254;83;21262;-68
2021/01/17 03:02:30;;;;;;;40.70;18.55;;;;;;;-15.51;68.56;99662.88;1718924;82;21284;-71
2021/01/17 03:04:59;;;;;;;36.65;18.80;;;;;;;-15.55;68.91;99663.52;1720606;82;21602;-69
2021/01/17 03:07:36;;;;;;;40.83;20.50;;;;;;;-15.57;69.21;99655.04;1714605;82;21132;-71
2021/01/17 03:10:09;;;;;;;27.95;13.75;;;;;;;-15.58;69.46;99661.55;1677157;83;21010;-70
2021/01/17 03:12:36;;;;;;;47.17;21.00;;;;;;;-15.61;69.74;99657.42;1719294;82;21542;-68
2021/01/17 03:15:05;;;;;;;37.50;19.95;;;;;;;-15.64;69.94;99657.61;1738624;82;21191;-68
2021/01/17 03:17:33;;;;;;;43.83;21.12;;;;;;;-15.57;70.18;99658.07;1736481;82;21186;-70
2021/01/17 03:20:01;;;;;;;32.20;16.20;;;;;;;-15.51;70.20;99655.16;1733413;82;21132;-69
2021/01/17 03:22:28;;;;;;;37.67;18.00;;;;;;;-15.45;70.09;99659.10;1724279;82;21196;-69
2021/01/17 03:24:55;;;;;;;41.33;19.50;;;;;;;-15.49;70.15;99654.09;1706314;84;21208;-69
2021/01/17 03:27:23;;;;;;;35.48;16.65;;;;;;;-15.52;70.29;99656.06;1709548;82;21257;-68
2021/01/17 03:29:50;;;;;;;36.50;20.32;;;;;;;-15.49;70.62;99656.68;1684892;84;21177;-70
2021/01/17 03:32:18;;;;;;;43.20;22.58;;;;;;;-15.42;70.80;99658.91;1727669;82;21025;-70
2021/01/17 03:34:48;;;;;;;34.35;16.55;;;;;;;-15.32;70.74;99648.45;1708324;83;21637;-68
2021/01/17 03:37:19;;;;;;;38.58;21.42;;;;;;;-15.20;70.70;99645.17;1710546;82;21614;-70
2021/01/17 03:39:47;;;;;;;39.48;17.55;;;;;;;-15.17;70.62;99647.56;1710186;83;21297;-71
2021/01/17 03:42:14;;;;;;;34.60;18.15;;;;;;;-15.12;70.58;99642.97;1710314;83;21197;-71
2021/01/17 03:44:42;;;;;;;35.95;18.12;;;;;;;-15.11;70.57;99639.48;1710101;83;21566;-70
2021/01/17 03:47:10;;;;;;;37.00;18.02;;;;;;;-15.14;70.53;99640.92;1704518;83;21124;-69
2021/01/17 03:49:37;;;;;;;41.55;18.42;;;;;;;-15.15;70.60;99636.23;1704502;84;21168;-70
2021/01/17 03:52:05;;;;;;;50.65;21.25;;;;;;;-15.11;70.58;99644.17;1704000;83;22035;-69
2021/01/17 03:54:33;;;;;;;35.50;16.52;;;;;;;-15.11;70.49;99642.89;1703015;84;21010;-70
2021/01/17 03:57:01;;;;;;;31.27;16.30;;;;;;;-15.07;70.44;99644.36;1703102;84;21002;-75
2021/01/17 03:59:29;;;;;;;25.32;13.90;;;;;;;-15.05;70.25;99641.67;1703060;84;21171;-69
2021/01/17 04:01:56;;;;;;;36.83;15.45;;;;;;;-15.14;70.04;99644.80;1704442;84;21612;-71
2021/01/17 04:04:24;;;;;;;44.18;19.82;;;;;;;-15.28;69.99;99639.16;1701526;84;21613;-70
2021/01/17 04:06:51;;;;;;;29.87;15.68;;;;;;;-15.36;70.07;99637.49;1701417;84;21583;-70
2021/01/17 04:09:19;;;;;;;35.75;16.87;;;;;;;-15.42;70.06;99636.55;1702652;84;21172;-68
2021/01/17 04:11:50;;;;;;;33.08;15.63;;;;;;;-15.50;70.04;99629.27;1676237;85;21636;-69
2021/01/17 04:14:18;;;;;;;40.03;20.88;;;;;;;-15.59;69.96;99633.70;1701625;84;21149;-69
2021/01/17 04:16:51;;;;;;;51.20;22.13;;;;;;;-15.67;69.99;99640.17;1704532;84;22396;-70
2021/01/17 04:19:19;;;;;;;37.65;19.07;;;;;;;-15.69;70.11;99641.58;1704641;83;21592;-70
2021/01/17 04:21:47;;;;;;;48.28;21.12;;;;;;;-15.62;70.31;99641.58;1676357;85;21605;-69
2021/01/17 04:24:14;;;;;;;34.73;17.35;;;;;;;-15.56;70.39;99641.24;1676179;85;21075;-70
2021/01/17 04:26:42;;;;;;;36.70;19.75;;;;;;;-15.50;70.56;99643.91;1695421;84;21159;-70
2021/01/17 04:29:10;;;;;;;42.80;21.15;;;;;;;-15.45;70.71;99635.45;1704347;84;22278;-69
2021/01/17 04:31:41;;;;;;;38.92;19.40;;;;;;;-15.35;70.68;99640.45;1703022;84;21183;-69
2021/01/17 04:34:10;;;;;;;39.08;22.80;;;;;;;-15.29;70.63;99639.23;1704155;84;21130;-70
2021/01/17 04:36:37;;;;;;;47.08;24.75;;;;;;;-15.21;70.53;99648.21;1704260;84;21847;-70
2021/01/17 04:39:05;;;;;;;55.88;24.87;;;;;;;-15.17;70.50;99639.83;1686544;84;21186;-70
2021/01/17 04:41:34;;;;;;;50.20;24.92;;;;;;;-15.06;70.43;99643.42;1675926;85;22589;-70
2021/01/17 04:44:04;;;;;;;46.92;24.52;;;;;;;-14.94;70.33;99643.17;1704245;84;21196;-69
2021/01/17 04:46:32;;;;;;;44.77;22.95;;;;;;;-14.80;70.24;99644.47;1708072;82;21230;-70
2021/01/17 04:49:05;;;;;;;39.78;20.35;;;;;;;-14.70;70.09;99640.88;1710697;83;21120;-70
2021/01/17 04:51:33;;;;;;;38.35;17.23;;;;;;;-14.66;69.95;99649.63;1711019;83;21129;-70
2021/01/17 04:54:02;;;;;;;45.70;23.73;;;;;;;-14.63;69.92;99653.33;1713467;83;21940;-69
2021/01/17 04:56:38;;;;;;;45.63;23.50;;;;;;;-14.90;68.54;99652.84;1713556;83;21021;-70
2021/01/17 04:59:19;;;;;;;46.53;20.17;;;;;;;-15.25;68.06;99658.30;1688040;83;21053;-70
2021/01/17 05:01:55;;;;;;;44.95;21.45;;;;;;;-15.36;68.50;99670.17;1710816;83;21163;-68
2021/01/17 05:04:44;;;;;;;41.65;22.32;;;;;;;-15.38;68.41;99665.55;1710562;83;21235;-69
2021/01/17 05:07:17;;;;;;;38.28;19.10;;;;;;;-15.33;68.60;99666.95;1710632;83;22307;-69
2021/01/17 05:09:51;;;;;;;47.33;20.82;;;;;;;-15.26;68.79;99651.97;1711056;83;21581;-71
2021/01/17 05:12:19;;;;;;;35.43;21.68;;;;;;;-15.24;68.97;99656.56;1700247;83;21163;-70
2021/01/17 05:14:56;;;;;;;40.05;21.40;;;;;;;-15.17;69.18;99647.56;1711000;83;21202;-71
2021/01/17 05:17:26;;;;;;;36.83;19.65;;;;;;;-15.09;69.00;99654.38;1710785;83;21139;-69
2021/01/17 05:19:54;;;;;;;38.10;21.52;;;;;;;-15.04;68.70;99647.20;1702099;84;21378;-70
2021/01/17 05:22:21;;;;;;;34.40;19.77;;;;;;;-15.08;68.44;99643.16;1710701;83;21084;-70
2021/01/17 05:24:55;;;;;;;34.03;15.93;;;;;;;-15.07;68.52;99643.07;1710529;83;21139;-70
2021/01/17 05:27:24;;;;;;;44.77;19.15;;;;;;;-15.11;68.43;99642.05;1711010;83;21669;-70
2021/01/17 05:29:51;;;;;;;40.17;19.17;;;;;;;-15.22;68.33;99639.27;1711147;83;21159;-70
2021/01/17 05:32:19;;;;;;;33.90;19.15;;;;;;;-15.30;68.46;99648.75;1711072;83;22471;-69
2021/01/17 05:34:46;;;;;;;38.05;19.10;;;;;;;-15.30;68.45;99644.05;1699690;84;21176;-69
2021/01/17 05:37:14;;;;;;;40.85;19.70;;;;;;;-15.31;68.32;99649.66;1710963;83;21076;-69
2021/01/17 05:40:06;;;;;;;32.63;18.77;;;;;;;-15.35;68.15;99650.77;1711190;83;21139;-70
2021/01/17 05:42:39;;;;;;;45.85;21.77;;;;;;;-15.34;68.31;99648.98;1711293;83;21180;-69
2021/01/17 05:45:26;;;;;;;47.65;22.80;;;;;;;-15.29;68.53;99645.68;1711069;83;21214;-69
2021/01/17 05:47:59;;;;;;;37.30;17.98;;;;;;;-15.24;68.48;99651.41;1710333;83;20967;-70
2021/01/17 05:50:30;;;;;;;44.35;21.25;;;;;;;-15.22;68.48;99651.70;1710469;83;21128;-71
2021/01/17 05:53:00;;;;;;;48.05;22.40;;;;;;;-15.11;68.61;99658.36;1710103;83;21019;-70
2021/01/17 05:55:36;;;;;;;36.33;19.90;;;;;;;-15.01;68.68;99657.82;1710670;83;21156;-70
2021/01/17 05:58:28;;;;;;;41.10;20.72;;;;;;;-14.88;69.03;99663.45;1710510;83;21490;-70
2021/01/17 06:01:01;;;;;;;44.30;21.90;;;;;;;-14.78;69.09;99665.02;1710642;83;21216;-70
2021/01/17 06:03:32;;;;;;;39.53;20.80;;;;;;;-14.63;69.29;99653.33;1711270;83;22240;-69
2021/01/17 06:06:06;;;;;;;33.95;17.60;;;;;;;-14.48;69.21;99660.58;1710832;83;21160;-71
2021/01/17 06:08:34;;;;;;;38.40;19.60;;;;;;;-14.39;68.98;99664.38;1710768;83;21117;-72
2021/01/17 06:11:12;;;;;;;44.80;22.02;;;;;;;-14.39;68.76;99663.91;1710666;83;21301;-71
2021/01/17 06:13:41;;;;;;;50.55;21.87;;;;;;;-14.26;68.78;99672.98;1710633;83;21164;-70
2021/01/17 06:16:25;;;;;;;54.38;24.05;;;;;;;-14.06;68.64;99676.47;1703192;84;21213;-71
2021/01/17 06:19:00;;;;;;;;;;;;;;;-13.90;68.45;99681.02;1713915;83;21546;-70
2021/01/17 06:21:30;;;;;;;42.50;19.82;;;;;;;-13.77;68.06;99674.63;1684636;84;20263;-70
2021/01/17 06:24:01;;;;;;;47.27;21.20;;;;;;;-13.71;67.88;99678.94;1710935;83;21140;-71
2021/01/17 06:26:32;;;;;;;38.83;22.05;;;;;;;-13.80;67.44;99669.18;1710939;83;21197;-70
2021/01/17 06:29:06;;;;;;;34.48;19.27;;;;;;;-13.95;67.35;99677.06;1710441;83;21152;-71
2021/01/17 06:31:33;;;;;;;43.60;22.02;;;;;;;-14.06;67.43;99682.09;1710641;83;21153;-68
2021/01/17 06:34:13;;;;;;;46.35;22.30;;;;;;;-14.20;67.47;99681.20;1711010;83;21095;-70
2021/01/17 06:36:43;;;;;;;32.40;17.70;;;;;;;-14.22;67.77;99683.49;1711243;83;21493;-70
2021/01/17 06:39:24;;;;;;;46.97;22.40;;;;;;;-14.24;67.73;99686.65;1710805;83;21593;-71
2021/01/17 06:41:55;;;;;;;43.33;23.35;;;;;;;-14.34;67.83;99686.38;1711054;83;21368;-70
2021/01/17 06:44:29;;;;;;;48.35;22.40;;;;;;;-14.42;67.93;99689.91;1710499;83;21183;-70
2021/01/17 06:46:57;;;;;;;40.65;19.95;;;;;;;-14.42;68.22;99686.03;1710722;82;21538;-71
2021/01/17 06:49:27;;;;;;;37.48;20.88;;;;;;;-14.36;68.32;99690.83;1711338;83;22275;-70
2021/01/17 06:51:55;;;;;;;41.37;22.22;;;;;;;-14.29;68.42;99693.36;1710442;83;21428;-70
2021/01/17 06:54:32;;;;;;;36.20;18.35;;;;;;;-14.11;68.51;99692.70;1710593;83;21176;-69
2021/01/17 06:57:01;;;;;;;35.35;19.92;;;;;;;-13.98;68.28;99698.77;1710640;83;22121;-71
2021/01/17 06:59:40;;;;;;;53.92;24.70;;;;;;;-13.98;68.03;99694.89;1711295;83;21600;-70
2021/01/17 07:02:19;;;;;;;37.90;17.20;;;;;;;-13.90;67.69;99694.41;1710388;83;21199;-71
2021/01/17 07:05:26;;;;;;;49.42;21.52;;;;;;;-13.88;67.51;99697.27;1710406;83;21141;-70
2021/01/17 07:08:22;;;;;;;32.87;20.90;;;;;;;-13.84;67.55;99692.27;1711050;83;21003;-68
2021/01/17 07:10:54;;;;;;;41.70;23.67;;;;;;;-13.69;67.58;99689.64;1712593;83;21805;-70
2021/01/17 07:13:22;;;;;;;35.50;19.50;;;;;;;-13.60;67.48;99687.30;1711481;83;21178;-69
2021/01/17 07:15:50;;;;;;;50.63;27.57;;;;;;;-13.48;67.37;99694.75;1739752;82;22250;-70
2021/01/17 07:18:19;;;;;;;57.77;28.67;;;;;;;-13.61;66.77;99690.81;1740903;82;21877;-69
2021/01/17 07:20:48;;;;;;;60.40;31.27;;;;;;;-13.75;66.46;99683.10;1731487;82;21510;-69
2021/01/17 07:23:17;;;;;;;30.30;17.23;;;;;;;-13.81;66.32;99692.56;1710703;83;21379;-67
2021/01/17 07:25:47;;;;;;;32.33;16.43;;;;;;;-13.86;66.31;99690.23;1711032;83;21344;-67
2021/01/17 07:28:22;;;;;;;66.43;30.17;;;;;;;-13.93;66.34;99689.44;1710898;83;22128;-69
2021/01/17 07:31:03;;;;;;;47.90;21.90;;;;;;;-14.05;66.25;99690.21;1710546;83;21950;-68
2021/01/17 07:33:36;;;;;;;46.17;22.37;;;;;;;-14.06;66.60;99682.92;1710799;83;21434;-69
2021/01/17 07:36:05;;;;;;;43.03;21.57;;;;;;;-14.00;67.03;99673.97;1710946;83;21279;-72
2021/01/17 07:38:41;;;;;;;36.43;18.37;;;;;;;-13.86;67.08;99679.09;1710824;83;21770;-69
2021/01/17 07:41:13;;;;;;;32.17;19.10;;;;;;;-13.70;67.06;99674.59;1710818;83;21462;-69
2021/01/17 07:43:45;;;;;;;41.13;20.40;;;;;;;-13.63;66.94;99673.75;1710639;83;21294;-68
2021/01/17 07:46:17;;;;;;;41.37;24.83;;;;;;;-13.60;66.90;99679.55;1710299;83;22055;-67
2021/01/17 07:48:48;;;;;;;38.97;20.70;;;;;;;-13.43;66.92;99675.89;1704114;83;21693;-67
2021/01/17 07:51:16;;;;;;;26.53;14.33;;;;;;;-13.22;66.89;99671.05;1704727;84;21987;-65
2021/01/17 07:54:19;;;;;;;45.83;24.70;;;;;;;-13.18;66.10;99675.09;1705107;84;21999;-69
2021/01/17 07:56:47;;;;;;;29.65;17.42;;;;;;;-13.31;66.16;99673.33;1704486;83;24884;-69
2021/01/17 07:59:24;;;;;;;44.17;22.93;;;;;;;-13.20;66.23;99680.39;1715084;82;21121;-70
2021/01/17 08:01:52;;;;;;;43.87;22.97;;;;;;;-13.23;66.07;99685.75;1705149;83;21863;-70
2021/01/17 08:04:21;;;;;;;40.67;20.90;;;;;;;-13.25;65.81;99685.50;1707254;83;21397;-70
2021/01/17 08:06:49;;;;;;;42.80;21.57;;;;;;;-13.38;65.81;99683.69;1706769;83;23546;-68
2021/01/17 08:09:19;;;;;;;45.33;23.40;;;;;;;-13.40;66.08;99689.44;1703522;82;21431;-69
2021/01/17 08:11:56;;;;;;;49.77;24.27;;;;;;;-13.36;66.23;99696.07;1723880;82;21372;-69
2021/01/17 08:14:34;;;;;;;30.33;15.73;;;;;;;-13.18;66.31;99682.39;1704332;82;21366;-70
2021/01/17 08:17:18;;;;;;;44.00;22.47;;;;;;;-13.10;65.79;99689.17;1641313;83;21759;-67
2021/01/17 08:19:56;;;;;;;33.37;19.10;;;;;;;-13.16;65.90;99692.66;1645711;87;21424;-67
2021/01/17 08:22:28;;;;;;;46.90;23.80;;;;;;;-13.27;65.71;99690.30;1664037;84;21494;-67
2021/01/17 08:25:06;;;;;;;36.80;18.83;;;;;;;-13.24;66.13;99691.88;1673821;85;21859;-69
2021/01/17 08:27:40;;;;;;;37.23;19.57;;;;;;;-13.11;66.17;99684.12;1678331;84;21498;-69
2021/01/17 08:30:16;;;;;;;48.90;24.57;;;;;;;-13.18;65.80;99675.92;1697081;84;21499;-70
2021/01/17 08:32:54;;;;;;;42.60;21.93;;;;;;;-13.18;66.14;99678.97;1681410;84;21338;-72
2021/01/17 08:35:27;;;;;;;43.03;17.83;;;;;;;-13.18;66.02;99676.39;1673185;84;21180;-68
2021/01/17 08:38:15;;;;;;;34.23;17.40;;;;;;;-13.10;66.33;99672.82;1662386;84;21259;-66
2021/01/17 08:40:46;;;;;;;49.33;24.30;;;;;;;-12.98;66.29;99671.98;1692763;84;21447;-69
2021/01/17 08:43:15;;;;;;;39.03;21.30;;;;;;;-12.93;66.15;99670.77;1676284;83;21386;-68
2021/01/17 08:45:47;;;;;;;47.87;26.13;;;;;;;-12.75;66.13;99673.03;1687896;84;21792;-67
2021/01/17 08:48:19;;;;;;;34.60;20.23;;;;;;;-12.69;66.02;99666.16;1711644;82;27528;-69
2021/01/17 08:50:57;;;;;;;34.50;19.75;;;;;;;-12.48;66.00;99664.23;1713869;83;25514;-69
2021/01/17 08:53:31;;;;;;;38.20;20.07;;;;;;;-12.31;65.55;99667.41;1668818;83;21428;-67
2021/01/17 08:56:05;;;;;;;37.83;15.07;;;;;;;-12.19;65.39;99670.00;1681580;83;21441;-66
2021/01/17 08:58:38;;;;;;;29.00;16.50;;;;;;;-12.05;64.34;99679.39;1714822;83;22290;-67
2021/01/17 09:01:07;;;;;;;27.47;15.13;;;;;;;-12.01;64.24;99676.48;1710591;83;21450;-71
2021/01/17 09:03:44;;;;;;;26.27;13.70;;;;;;;-11.85;63.94;99677.52;1687336;83;21403;-67
2021/01/17 09:06:21;;;;;;;30.20;15.70;;;;;;;-11.73;63.47;99677.10;1658730;85;21542;-68
2021/01/17 09:08:57;;;;;;;23.07;13.93;;;;;;;-11.67;63.06;99677.47;1656395;86;21436;-68
2021/01/17 09:11:32;;;;;;;23.53;13.17;;;;;;;-11.60;62.62;99679.97;1657303;85;21405;-69
2021/01/17 09:14:27;;;;;;;19.17;13.20;;;;;;;-11.58;62.32;99677.27;1676420;83;21438;-69
2021/01/17 09:17:02;;;;;;;25.43;14.10;;;;;;;-11.55;62.05;99668.80;1684535;85;21421;-69
2021/01/17 09:19:34;;;;;;;32.93;17.20;;;;;;;-11.47;61.80;99673.45;1685358;85;21451;-68
2021/01/17 09:22:05;;;;;;;30.25;15.13;;;;;;;-11.49;61.50;99672.25;1686425;85;21441;-70
2021/01/17 09:24:37;;;;;;;25.37;13.73;;;;;;;-11.47;61.01;99670.02;1657606;86;22311;-67
2021/01/17 09:27:08;;;;;;;28.60;14.80;;;;;;;-11.51;61.16;99674.11;1657956;86;21860;-69
2021/01/17 09:29:39;;;;;;;24.43;14.47;;;;;;;-11.51;60.57;99669.42;1658214;85;21507;-74
2021/01/17 09:32:17;;;;;;;20.05;14.53;;;;;;;-11.55;60.75;99676.58;1642019;86;21443;-65
2021/01/17 09:34:48;;;;;;;31.20;16.73;;;;;;;-11.58;60.43;99671.62;1639223;86;21195;-66
2021/01/17 09:37:17;;;;;;;35.17;18.50;;;;;;;-11.56;60.63;99670.22;1643366;85;21637;-64
2021/01/17 09:39:47;;;;;;;25.77;16.07;;;;;;;-11.48;60.49;99666.59;1635002;85;22023;-68
2021/01/17 09:42:16;;;;;;;25.30;12.37;;;;;;;-11.51;59.86;99662.44;1658696;85;21953;-67
2021/01/17 09:44:52;;;;;;;30.87;17.80;;;;;;;-11.51;59.86;99662.44;1684667;85;21570;-69
2021/01/17 09:47:22;;;;;;;27.93;16.80;;;;;;;-11.56;59.93;99663.24;1686866;83;21610;-67
2021/01/17 09:49:49;;;;;;;30.60;18.60;;;;;;;-11.66;60.15;99665.34;1656954;86;21568;-66
2021/01/17 09:52:20;;;;;;;27.23;15.70;;;;;;;-11.68;60.14;99662.84;1635329;86;21565;-67
2021/01/17 09:54:48;;;;;;;27.67;16.97;;;;;;;-11.68;60.14;99662.84;1629201;88;21590;-69
2021/01/17 09:57:21;;;;;;;34.00;21.00;;;;;;;-11.72;60.19;99648.45;1623947;88;21628;-70
2021/01/17 09:59:51;;;;;;;26.23;15.27;;;;;;;-11.77;60.33;99650.57;1634112;86;22001;-70
2021/01/17 10:02:24;;;;;;;38.23;20.13;;;;;;;-11.81;60.48;99655.63;1649914;86;21900;-70
2021/01/17 10:04:53;;;;;;;38.47;19.63;;;;;;;-11.80;60.80;99650.80;1655251;86;21537;-69
2021/01/17 10:07:22;;;;;;;32.90;16.97;;;;;;;-11.73;60.97;99664.14;1669204;85;21489;-68
2021/01/17 10:09:53;;;;;;;31.17;19.20;;;;;;;-11.63;61.06;99657.33;1671324;85;21430;-68
2021/01/17 10:12:24;;;;;;;27.97;14.93;;;;;;;-11.60;60.98;99650.14;1656576;86;21513;-69
2021/01/17 10:14:53;;;;;;;23.70;16.57;;;;;;;-11.68;60.92;99649.87;1657990;85;21555;-69
2021/01/17 10:17:21;;;;;;;36.27;18.77;;;;;;;-11.68;60.92;99649.87;1685156;85;21522;-69
2021/01/17 10:19:49;;;;;;;32.87;18.97;;;;;;;-11.69;61.12;99641.73;1683993;85;21614;-70
2021/01/17 10:22:17;;;;;;;28.37;15.30;;;;;;;-11.63;61.19;99640.00;1657423;86;21530;-69
2021/01/17 10:24:44;;;;;;;20.67;11.97;;;;;;;-11.54;61.15;99646.28;1658080;86;21583;-70
2021/01/17 10:27:12;;;;;;;26.40;13.97;;;;;;;-11.51;60.84;99646.08;1658200;86;22422;-70
2021/01/17 10:29:41;;;;;;;21.00;11.70;;;;;;;-11.50;60.30;99642.52;1658059;86;21676;-68
2021/01/17 10:32:12;;;;;;;15.93;11.83;;;;;;;-11.61;60.13;99639.44;1656592;86;21922;-69
2021/01/17 10:34:45;;;;;;;21.63;13.97;;;;;;;-11.69;60.38;99635.25;1656838;86;21940;-71
2021/01/17 10:37:17;;;;;;;21.13;12.80;;;;;;;-11.69;60.38;99635.25;1656927;86;21559;-70
2021/01/17 10:39:46;;;;;;;22.73;12.40;;;;;;;-11.66;60.84;99634.22;1655233;86;22424;-68
2021/01/17 10:42:25;;;;;;;24.57;15.17;;;;;;;-11.66;60.84;99634.22;1657360;86;21462;-69
2021/01/17 10:45:02;;;;;;;28.13;14.63;;;;;;;-11.65;60.74;99633.28;1647351;87;21646;-70
2021/01/17 10:47:48;;;;;;;20.93;13.20;;;;;;;-11.65;60.74;99633.28;1648600;87;21907;-71
2021/01/17 10:50:20;;;;;;;15.47;10.53;;;;;;;-11.56;61.01;99637.30;1656954;86;21690;-71
2021/01/17 10:53:15;;;;;;;26.62;14.80;;;;;;;-11.42;60.49;99625.11;1656188;86;21561;-69
2021/01/17 10:55:52;;;;;;;25.83;15.93;;;;;;;-11.38;60.48;99628.66;1646008;87;21193;-70
2021/01/17 10:58:33;;;;;;;27.63;14.20;;;;;;;-11.25;60.59;99635.06;1655978;86;21457;-69
2021/01/17 11:01:01;;;;;;;14.63;10.27;;;;;;;-10.96;60.23;99627.23;1631349;86;21623;-91
2021/01/17 11:03:37;;;;;;;26.20;13.27;;;;;;;-10.86;59.97;99622.16;1656934;86;21752;-69
2021/01/17 11:06:13;;;;;;;23.87;12.83;;;;;;;-10.72;59.51;99622.77;1656521;86;21667;-69
2021/01/17 11:08:52;;;;;;;20.23;13.33;;;;;;;-10.72;59.51;99622.77;1656234;86;21640;-68
2021/01/17 11:11:24;;;;;;;18.07;11.07;;;;;;;-10.79;58.55;99620.27;1658131;86;21688;-66
2021/01/17 11:14:04;;;;;;;22.55;14.73;;;;;;;-10.79;58.55;99620.27;1658223;86;22087;-70
2021/01/17 11:16:43;;;;;;;15.73;10.77;;;;;;;-10.82;58.58;99620.52;1630636;88;21183;-70
2021/01/17 11:19:13;;;;;;;19.80;10.97;;;;;;;-10.81;58.56;99627.37;1663265;85;21987;-71
2021/01/17 11:21:48;;;;;;;22.63;13.23;;;;;;;-10.73;58.78;99615.92;1662117;85;22128;-67
2021/01/17 11:24:17;;;;;;;17.20;12.33;;;;;;;-10.58;58.56;99623.02;1655478;86;21755;-69
2021/01/17 11:26:47;;;;;;;23.77;12.80;;;;;;;-10.58;58.56;99623.02;1655881;86;21964;-71
2021/01/17 11:29:17;;;;;;;22.47;11.37;;;;;;;-10.30;58.28;99610.83;1674778;85;21798;-69
2021/01/17 11:31:45;;;;;;;16.13;9.80;;;;;;;-10.30;58.28;99610.83;1685784;84;21855;-68